createdAt,value
2022-10-18T00:00:53.251Z,97257.59
2022-10-18T00:03:20.502Z,97260.94
2022-10-18T00:05:49.848Z,97265.72
2022-10-18T00:08:18.134Z,97255.00
2022-10-18T00:10:45.790Z,97250.53
2022-10-18T00:13:13.134Z,97247.56
2022-10-18T00:15:40.204Z,97259.56
2022-10-18T00:18:07.506Z,97265.25
2022-10-18T00:20:36.690Z,97269.00
2022-10-18T00:23:03.824Z,97244.97
2022-10-18T00:25:30.787Z,97253.00
2022-10-18T00:27:58.123Z,97264.19
2022-10-18T00:30:25.985Z,97264.47
2022-10-18T00:32:53.183Z,97266.50
2022-10-18T00:35:20.426Z,97281.28
2022-10-18T00:37:47.488Z,97275.78
2022-10-18T00:40:14.566Z,97279.78
2022-10-18T00:42:41.645Z,97288.50
2022-10-18T00:45:23.725Z,97274.56
2022-10-18T00:47:55.490Z,97278.94
2022-10-18T00:50:25.133Z,97263.94
2022-10-18T00:53:01.033Z,97261.19
2022-10-18T00:55:29.785Z,97262.53
2022-10-18T00:57:58.093Z,97270.28
2022-10-18T01:00:25.297Z,97269.56
2022-10-18T01:02:52.558Z,97264.84
2022-10-18T01:05:21.154Z,97270.81
2022-10-18T01:08:08.450Z,97270.84
2022-10-18T01:10:53.676Z,97272.13
2022-10-18T01:13:29.755Z,97269.13
2022-10-18T01:16:02.423Z,97257.56
2022-10-18T01:18:40.849Z,97242.38
2022-10-18T01:21:37.482Z,97243.78
2022-10-18T01:24:22.837Z,97241.38
2022-10-18T01:27:05.235Z,97240.16
2022-10-18T01:30:02.707Z,97241.69
2022-10-18T01:32:47.626Z,97235.00
2022-10-18T01:35:23.745Z,97240.00
2022-10-18T01:37:56.407Z,97239.03
2022-10-18T01:40:25.549Z,97242.03
2022-10-18T01:42:53.272Z,97238.66
2022-10-18T01:45:23.166Z,97223.50
2022-10-18T01:47:51.505Z,97217.13
2022-10-18T01:50:30.089Z,97222.50
2022-10-18T01:52:57.653Z,97222.81
2022-10-18T01:55:48.865Z,97222.84
2022-10-18T01:58:34.885Z,97223.38
2022-10-18T02:01:18.434Z,97230.09
2022-10-18T02:03:48.618Z,97231.88
2022-10-18T02:06:26.609Z,97229.63
2022-10-18T02:09:03.577Z,97224.34
2022-10-18T02:11:32.659Z,97230.50
2022-10-18T02:14:12.348Z,97225.03
2022-10-18T02:16:43.553Z,97219.38
2022-10-18T02:19:34.427Z,97235.13
2022-10-18T02:22:02.546Z,97236.13
2022-10-18T02:24:37.964Z,97234.91
2022-10-18T02:27:05.282Z,97234.91
2022-10-18T02:29:32.717Z,97238.13
2022-10-18T02:32:04.731Z,97229.66
2022-10-18T02:34:55.163Z,97229.19
2022-10-18T02:37:23.146Z,97231.19
2022-10-18T02:39:51.867Z,97237.38
2022-10-18T02:42:19.053Z,97243.97
2022-10-18T02:44:46.075Z,97244.22
2022-10-18T02:47:13.230Z,97251.97
2022-10-18T02:49:41.232Z,97258.75
2022-10-18T02:52:08.383Z,97252.75
2022-10-18T02:54:35.683Z,97260.00
2022-10-18T02:57:02.738Z,97253.50
2022-10-18T02:59:29.733Z,97262.75
2022-10-18T03:01:56.867Z,97272.69
2022-10-18T03:04:24.919Z,97270.50
2022-10-18T03:06:52.037Z,97282.66
2022-10-18T03:09:19.277Z,97282.06
2022-10-18T03:11:46.486Z,97287.13
2022-10-18T03:14:13.764Z,97288.94
2022-10-18T03:16:41.004Z,97285.44
2022-10-18T03:19:09.049Z,97286.69
2022-10-18T03:21:36.212Z,97299.41
2022-10-18T03:24:03.896Z,97288.44
2022-10-18T03:26:30.936Z,97273.75
2022-10-18T03:28:58.251Z,97282.69
2022-10-18T03:31:26.436Z,97284.94
2022-10-18T03:33:54.468Z,97288.91
2022-10-18T03:36:21.707Z,97291.63
2022-10-18T03:38:48.871Z,97291.41
2022-10-18T03:41:16.208Z,97289.41
2022-10-18T03:43:43.361Z,97287.44
2022-10-18T03:46:10.592Z,97280.19
2022-10-18T03:48:37.668Z,97279.69
2022-10-18T03:51:04.959Z,97287.13
2022-10-18T03:53:32.286Z,97289.88
2022-10-18T03:55:59.458Z,97288.63
2022-10-18T03:58:26.501Z,97282.66
2022-10-18T04:00:54.524Z,97275.44
2022-10-18T04:03:23.055Z,97284.63
2022-10-18T04:05:50.736Z,97272.41
2022-10-18T04:08:19.071Z,97269.94
2022-10-18T04:10:46.855Z,97283.34
2022-10-18T04:13:15.505Z,97267.41
2022-10-18T04:15:43.598Z,97277.16
2022-10-18T04:18:10.638Z,97280.50
2022-10-18T04:20:37.758Z,97278.91
2022-10-18T04:23:04.719Z,97282.13
2022-10-18T04:25:32.006Z,97281.38
2022-10-18T04:27:59.018Z,97279.63
2022-10-18T04:30:26.133Z,97276.63
2022-10-18T04:32:53.096Z,97272.38
2022-10-18T04:35:24.700Z,97272.84
2022-10-18T04:37:52.099Z,97275.59
2022-10-18T04:40:20.141Z,97276.56
2022-10-18T04:42:47.805Z,97294.72
2022-10-18T04:45:15.219Z,97289.22
2022-10-18T04:47:42.405Z,97286.97
2022-10-18T04:50:09.717Z,97288.81
2022-10-18T04:52:36.973Z,97280.97
2022-10-18T04:55:04.253Z,97269.22
2022-10-18T04:57:31.787Z,97271.88
2022-10-18T04:59:59.063Z,97277.81
2022-10-18T05:02:26.306Z,97283.53
2022-10-18T05:04:53.523Z,97288.00
2022-10-18T05:07:20.748Z,97276.53
2022-10-18T05:09:48.438Z,97282.50
2022-10-18T05:12:15.623Z,97288.50
2022-10-18T05:14:42.797Z,97284.75
2022-10-18T05:17:09.984Z,97287.25
2022-10-18T05:19:37.406Z,97285.97
2022-10-18T05:22:04.532Z,97292.72
2022-10-18T05:24:31.561Z,97290.97
2022-10-18T05:26:58.787Z,97295.38
2022-10-18T05:31:58.024Z,97294.28
2022-10-18T05:34:27.460Z,97296.72
2022-10-18T05:36:54.565Z,97285.53
2022-10-18T05:39:21.954Z,97266.66
2022-10-18T05:41:49.393Z,97258.44
2022-10-18T05:44:16.635Z,97253.19
2022-10-18T05:46:43.950Z,97260.66
2022-10-18T05:49:14.867Z,97269.59
2022-10-18T05:51:42.228Z,97265.63
2022-10-18T05:54:12.382Z,97272.34
2022-10-18T05:56:40.036Z,97269.00
2022-10-18T05:59:12.354Z,97262.53
2022-10-18T06:01:41.436Z,97254.78
2022-10-18T06:04:10.593Z,97273.66
2022-10-18T06:06:39.087Z,97271.41
2022-10-18T06:09:07.624Z,97280.59
2022-10-18T06:11:36.251Z,97281.56
2022-10-18T06:14:04.624Z,97296.47
2022-10-18T06:16:32.770Z,97298.41
2022-10-18T06:19:00.608Z,97305.09
2022-10-18T06:21:28.233Z,97310.53
2022-10-18T06:23:59.688Z,97325.44
2022-10-18T06:26:28.112Z,97321.69
2022-10-18T06:28:55.673Z,97332.66
2022-10-18T06:31:23.067Z,97329.88
2022-10-18T06:33:50.885Z,97331.28
2022-10-18T06:36:22.818Z,97333.94
2022-10-18T06:38:53.690Z,97338.16
2022-10-18T06:41:22.185Z,97342.38
2022-10-18T06:43:57.142Z,97350.84
2022-10-18T06:46:24.937Z,97355.31
2022-10-18T06:48:52.272Z,97346.88
2022-10-18T06:51:19.842Z,97344.41
2022-10-18T06:53:59.053Z,97346.91
2022-10-18T06:56:33.655Z,97348.88
2022-10-18T06:59:00.678Z,97359.56
2022-10-18T07:01:30.961Z,97354.34
2022-10-18T07:03:58.226Z,97362.03
2022-10-18T07:06:25.586Z,97357.59
2022-10-18T07:08:54.297Z,97344.53
2022-10-18T07:11:25.736Z,97357.66
2022-10-18T07:13:55.082Z,97364.38
2022-10-18T07:16:22.605Z,97369.56
2022-10-18T07:18:51.557Z,97367.31
2022-10-18T07:21:23.507Z,97363.34
2022-10-18T07:23:51.366Z,97360.34
2022-10-18T07:26:25.141Z,97372.78
2022-10-18T07:29:02.376Z,97371.28
2022-10-18T07:31:30.427Z,97375.53
2022-10-18T07:33:58.445Z,97386.94
2022-10-18T07:36:28.227Z,97387.84
2022-10-18T07:38:55.413Z,97393.50
2022-10-18T07:41:23.484Z,97392.72
2022-10-18T07:43:52.871Z,97397.44
2022-10-18T07:46:22.334Z,97393.94
2022-10-18T07:48:50.434Z,97399.19
2022-10-18T07:51:20.894Z,97405.41
2022-10-18T07:53:50.266Z,97421.59
2022-10-18T07:56:21.429Z,97421.34
2022-10-18T07:58:54.189Z,97418.38
2022-10-18T08:01:22.836Z,97422.84
2022-10-18T08:03:51.079Z,97419.00
2022-10-18T08:06:20.617Z,97424.28
2022-10-18T08:08:48.394Z,97424.22
2022-10-18T08:11:18.513Z,97425.69
2022-10-18T08:13:46.093Z,97435.38
2022-10-18T08:16:19.676Z,97425.16
2022-10-18T08:18:47.495Z,97426.16
2022-10-18T08:21:16.879Z,97429.66
2022-10-18T08:23:44.843Z,97435.63
2022-10-18T08:26:14.617Z,97425.72
2022-10-18T08:28:46.158Z,97432.94
2022-10-18T08:31:22.631Z,97430.38
2022-10-18T08:33:50.139Z,97431.09
2022-10-18T08:36:17.773Z,97434.00
2022-10-18T08:38:45.231Z,97442.22
2022-10-18T08:41:28.294Z,97448.69
2022-10-18T08:44:24.795Z,97443.75
2022-10-18T08:47:00.325Z,97447.00
2022-10-18T08:49:36.527Z,97455.72
2022-10-18T08:52:13.509Z,97454.25
2022-10-18T08:55:00.824Z,97454.25
2022-10-18T08:57:29.188Z,97443.03
2022-10-18T08:59:57.088Z,97436.13
2022-10-18T09:02:36.321Z,97437.84
2022-10-18T09:05:10.632Z,97436.88
2022-10-18T09:07:54.367Z,97429.88
2022-10-18T09:10:42.547Z,97433.34
2022-10-18T09:13:53.846Z,97438.09
2022-10-18T09:16:45.109Z,97443.81
2022-10-18T09:19:38.235Z,97456.53
2022-10-18T09:22:18.525Z,97456.28
2022-10-18T09:25:00.699Z,97454.31
2022-10-18T09:27:47.094Z,97450.56
2022-10-18T09:30:38.187Z,97444.34
2022-10-18T09:33:23.390Z,97454.03
2022-10-18T09:35:58.313Z,97451.31
2022-10-18T09:38:31.309Z,97454.56
2022-10-18T09:41:08.329Z,97453.28
2022-10-18T09:44:00.120Z,97457.78
2022-10-18T09:46:32.710Z,97461.28
2022-10-18T09:49:39.113Z,97464.25
2022-10-18T09:52:14.103Z,97461.47
2022-10-18T09:54:47.035Z,97453.22
2022-10-18T09:57:31.887Z,97453.56
2022-10-18T10:00:01.997Z,97451.56
2022-10-18T10:02:49.072Z,97458.03
2022-10-18T10:05:16.684Z,97457.28
2022-10-18T10:07:47.627Z,97459.03
2022-10-18T10:10:22.377Z,97455.81
2022-10-18T10:13:26.262Z,97467.22
2022-10-18T10:16:04.280Z,97461.28
2022-10-18T10:18:34.950Z,97463.00
2022-10-18T10:21:07.243Z,97456.03
2022-10-18T10:23:45.065Z,97467.25
2022-10-18T10:26:44.526Z,97468.75
2022-10-18T10:29:45.994Z,97464.50
2022-10-18T10:32:15.717Z,97463.75
2022-10-18T10:34:44.823Z,97462.00
2022-10-18T10:37:26.434Z,97467.25
2022-10-18T10:40:22.092Z,97467.00
2022-10-18T10:43:18.170Z,97475.22
2022-10-18T10:46:02.025Z,97473.72
2022-10-18T10:48:34.002Z,97469.91
2022-10-18T10:51:10.043Z,97463.00
2022-10-18T10:53:51.119Z,97471.22
2022-10-18T10:56:32.090Z,97473.97
2022-10-18T10:59:08.742Z,97479.97
2022-10-18T11:01:36.835Z,97484.44
2022-10-18T11:04:26.523Z,97481.94
2022-10-18T11:07:28.471Z,97478.19
2022-10-18T11:10:10.302Z,97480.94
2022-10-18T11:12:53.443Z,97466.63
2022-10-18T11:15:28.966Z,97462.22
2022-10-18T11:18:30.489Z,97465.19
2022-10-18T11:21:15.045Z,97473.69
2022-10-18T11:23:44.366Z,97479.41
2022-10-18T11:26:39.454Z,97469.94
2022-10-18T11:29:33.922Z,97471.69
2022-10-18T11:32:10.761Z,97473.69
2022-10-18T11:35:05.079Z,97483.31
2022-10-18T11:38:04.481Z,97466.66
2022-10-18T11:40:49.441Z,97465.31
2022-10-18T11:43:57.076Z,97468.63
2022-10-18T11:46:31.242Z,97472.91
2022-10-18T11:49:29.722Z,97479.38
2022-10-18T11:52:08.455Z,97480.91
2022-10-18T11:54:59.918Z,97477.69
2022-10-18T11:57:48.683Z,97477.44
2022-10-18T12:00:41.380Z,97473.41
2022-10-18T12:03:21.247Z,97472.63
2022-10-18T12:05:52.052Z,97469.69
2022-10-18T12:08:29.567Z,97464.72
2022-10-18T12:11:05.841Z,97478.44
2022-10-18T12:14:01.213Z,97474.47
2022-10-18T12:16:50.525Z,97474.47
2022-10-18T12:19:29.821Z,97471.47
2022-10-18T12:22:03.167Z,97473.75
2022-10-18T12:24:32.407Z,97472.25
2022-10-18T12:27:02.165Z,97467.03
2022-10-18T12:29:40.316Z,97465.53
2022-10-18T12:32:32.135Z,97468.50
2022-10-18T12:35:13.822Z,97462.88
2022-10-18T12:37:54.454Z,97457.75
2022-10-18T12:40:44.337Z,97462.28
2022-10-18T12:43:21.485Z,97466.50
2022-10-18T12:46:01.583Z,97470.97
2022-10-18T12:48:42.956Z,97468.00
2022-10-18T12:51:15.557Z,97471.50
2022-10-18T12:54:10.259Z,97472.97
2022-10-18T12:56:42.101Z,97462.75
2022-10-18T12:59:17.288Z,97460.63
2022-10-18T13:01:51.017Z,97453.94
2022-10-18T13:04:27.490Z,97447.47
2022-10-18T13:06:57.772Z,97449.78
2022-10-18T13:09:39.841Z,97450.28
2022-10-18T13:12:09.882Z,97443.84
2022-10-18T13:15:13.339Z,97440.84
2022-10-18T13:18:09.682Z,97440.81
2022-10-18T13:21:29.517Z,97446.56
2022-10-18T13:24:16.297Z,97449.31
2022-10-18T13:26:58.134Z,97449.78
2022-10-18T13:30:01.641Z,97451.88
2022-10-18T13:33:03.370Z,97433.75
2022-10-18T13:35:52.610Z,97446.03
2022-10-18T13:38:41.146Z,97457.28
2022-10-18T13:43:54.596Z,97460.03
2022-10-18T13:46:26.162Z,97462.78
2022-10-18T13:49:14.002Z,97459.53
2022-10-18T13:51:54.689Z,97464.03
2022-10-18T13:54:57.361Z,97470.97
2022-10-18T13:57:46.058Z,97473.69
2022-10-18T14:00:28.784Z,97473.53
2022-10-18T14:06:33.396Z,97476.00
2022-10-18T14:09:45.325Z,97471.25
2022-10-18T14:12:52.691Z,97478.25
2022-10-18T14:15:31.946Z,97483.72
2022-10-18T14:18:15.539Z,97489.66
2022-10-18T14:21:01.399Z,97478.31
2022-10-18T14:23:44.985Z,97460.22
2022-10-18T14:26:20.837Z,97471.88
2022-10-18T14:29:06.148Z,97473.16
2022-10-18T14:31:34.997Z,97473.91
2022-10-18T14:34:05.082Z,97478.44
2022-10-18T14:36:41.929Z,97490.16
2022-10-18T14:39:21.446Z,97484.69
2022-10-18T14:41:51.203Z,97486.69
2022-10-18T14:44:25.155Z,97479.72
2022-10-18T14:47:20.363Z,97483.72
2022-10-18T14:49:49.200Z,97493.66
2022-10-18T14:52:40.801Z,97498.66
2022-10-18T14:55:21.564Z,97490.94
2022-10-18T14:57:49.139Z,97491.66
2022-10-18T15:02:52.483Z,97496.91
2022-10-18T15:05:23.122Z,97493.41
2022-10-18T15:07:52.280Z,97498.13
2022-10-18T15:10:25.807Z,97488.69
2022-10-18T15:13:09.192Z,97491.91
2022-10-18T15:15:39.323Z,97487.91
2022-10-18T15:18:08.603Z,97488.66
2022-10-18T15:20:42.843Z,97485.19
2022-10-18T15:23:32.248Z,97488.69
2022-10-18T15:26:06.282Z,97483.72
2022-10-18T15:28:49.640Z,97476.50
2022-10-18T15:31:24.526Z,97477.22
2022-10-18T15:33:53.295Z,97481.00
2022-10-18T15:36:29.659Z,97462.47
2022-10-18T15:39:18.363Z,97467.50
2022-10-18T15:41:49.367Z,97466.50
2022-10-18T15:44:21.288Z,97473.97
2022-10-18T15:46:50.815Z,97481.97
2022-10-18T15:49:39.736Z,97478.94
2022-10-18T15:52:13.106Z,97473.97
2022-10-18T15:54:59.082Z,97478.44
2022-10-18T15:57:29.132Z,97475.72
2022-10-18T16:00:02.450Z,97471.44
2022-10-18T16:02:39.136Z,97477.44
2022-10-18T16:05:06.685Z,97477.94
2022-10-18T16:07:34.126Z,97479.44
2022-10-18T16:10:01.656Z,97482.63
2022-10-18T16:12:29.416Z,97481.38
2022-10-18T16:14:56.735Z,97481.88
2022-10-18T16:17:26.886Z,97488.19
2022-10-18T16:19:54.223Z,97486.22
2022-10-18T16:22:21.454Z,97473.97
2022-10-18T16:24:48.797Z,97462.78
2022-10-18T16:27:16.846Z,97472.72
2022-10-18T16:29:44.228Z,97467.22
2022-10-18T16:32:11.497Z,97466.69
2022-10-18T16:34:38.813Z,97475.16
2022-10-18T16:37:06.203Z,97478.91
2022-10-18T16:39:35.740Z,97473.91
2022-10-18T16:42:03.804Z,97479.38
2022-10-18T16:44:31.928Z,97478.63
2022-10-18T16:46:59.357Z,97489.94
2022-10-18T16:49:27.563Z,97481.72
2022-10-18T16:51:55.733Z,97476.44
2022-10-18T16:54:23.898Z,97485.38
2022-10-18T16:56:52.968Z,97488.59
2022-10-18T16:59:29.270Z,97482.84
2022-10-18T17:01:56.840Z,97492.25
2022-10-18T17:04:24.315Z,97494.97
2022-10-18T17:06:53.024Z,97491.47
2022-10-18T17:09:20.259Z,97504.63
2022-10-18T17:11:47.890Z,97496.41
2022-10-18T17:14:15.088Z,97497.63
2022-10-18T17:16:45.403Z,97497.53
2022-10-18T17:19:15.833Z,97505.16
2022-10-18T17:21:43.438Z,97503.09
2022-10-18T17:24:11.004Z,97506.81
2022-10-18T17:26:38.738Z,97499.31
2022-10-18T17:29:08.399Z,97505.00
2022-10-18T17:31:36.210Z,97499.03
2022-10-18T17:34:04.692Z,97506.44
2022-10-18T17:36:33.926Z,97509.16
2022-10-18T17:39:01.711Z,97512.31
2022-10-18T17:41:29.807Z,97506.81
2022-10-18T17:43:57.604Z,97509.03
2022-10-18T17:46:25.164Z,97526.34
2022-10-18T17:48:53.927Z,97523.31
2022-10-18T17:51:21.634Z,97519.56
2022-10-18T17:53:49.323Z,97522.94
2022-10-18T17:56:17.201Z,97527.34
2022-10-18T17:58:44.721Z,97529.06
2022-10-18T18:01:14.867Z,97523.81
2022-10-18T18:03:42.444Z,97530.53
2022-10-18T18:06:31.493Z,97531.00
2022-10-18T18:09:05.559Z,97534.97
2022-10-18T18:11:33.523Z,97548.38
2022-10-18T18:14:01.723Z,97547.63
2022-10-18T18:16:30.977Z,97549.13
2022-10-18T18:18:59.010Z,97554.59
2022-10-18T18:21:27.441Z,97553.00
2022-10-18T18:23:57.763Z,97551.78
2022-10-18T18:26:31.893Z,97554.53
2022-10-18T18:28:59.901Z,97543.75
2022-10-18T18:31:30.730Z,97539.25
2022-10-18T18:34:02.122Z,97551.91
2022-10-18T18:36:29.776Z,97543.44
2022-10-18T18:38:59.723Z,97540.44
2022-10-18T18:41:29.277Z,97543.66
2022-10-18T18:44:01.361Z,97548.88
2022-10-18T18:46:30.938Z,97538.13
2022-10-18T18:49:00.265Z,97536.38
2022-10-18T18:51:27.762Z,97535.09
2022-10-18T18:53:55.343Z,97536.84
2022-10-18T18:56:26.677Z,97539.50
2022-10-18T18:58:55.342Z,97535.63
2022-10-18T19:01:31.793Z,97527.59
2022-10-18T19:04:00.170Z,97531.03
2022-10-18T19:06:32.779Z,97529.75
2022-10-18T19:09:07.564Z,97531.19
2022-10-18T19:11:39.134Z,97528.66
2022-10-18T19:14:08.552Z,97532.38
2022-10-18T19:16:38.323Z,97532.56
2022-10-18T19:19:13.237Z,97532.31
2022-10-18T19:22:11.417Z,97524.34
2022-10-18T19:24:38.883Z,97526.50
2022-10-18T19:27:10.042Z,97520.03
2022-10-18T19:29:39.155Z,97524.97
2022-10-18T19:32:12.402Z,97517.31
2022-10-18T19:34:40.803Z,97517.69
2022-10-18T19:37:09.802Z,97526.44
2022-10-18T19:39:37.849Z,97526.13
2022-10-18T19:42:15.712Z,97528.81
2022-10-18T19:44:45.842Z,97529.50
2022-10-18T19:47:16.267Z,97518.78
2022-10-18T19:49:43.743Z,97522.00
2022-10-18T19:52:12.549Z,97529.91
2022-10-18T19:54:42.980Z,97520.72
2022-10-18T19:57:10.762Z,97527.13
2022-10-18T19:59:38.714Z,97523.84
2022-10-18T20:02:06.403Z,97528.28
2022-10-18T20:04:35.401Z,97526.78
2022-10-18T20:07:05.963Z,97522.78
2022-10-18T20:09:34.077Z,97529.19
2022-10-18T20:12:01.614Z,97527.38
2022-10-18T20:14:29.289Z,97530.06
2022-10-18T20:16:56.646Z,97532.88
2022-10-18T20:19:24.129Z,97521.13
2022-10-18T20:21:51.429Z,97526.06
2022-10-18T20:24:18.834Z,97518.81
2022-10-18T20:26:46.563Z,97521.75
2022-10-18T20:29:14.017Z,97530.22
2022-10-18T20:31:41.228Z,97526.91
2022-10-18T20:34:11.989Z,97526.66
2022-10-18T20:36:40.012Z,97523.66
2022-10-18T20:39:07.595Z,97521.38
2022-10-18T20:41:39.077Z,97525.84
2022-10-18T20:44:08.917Z,97523.56
2022-10-18T20:46:40.164Z,97515.59
2022-10-18T20:49:09.829Z,97516.03
2022-10-18T20:51:37.005Z,97522.69
2022-10-18T20:56:39.298Z,97513.63
2022-10-18T20:59:10.137Z,97520.94
2022-10-18T21:01:39.410Z,97514.94
2022-10-18T21:04:09.381Z,97507.25
2022-10-18T21:06:43.983Z,97508.47
2022-10-18T21:09:19.550Z,97507.44
2022-10-18T21:11:50.742Z,97503.69
2022-10-18T21:14:20.256Z,97510.84
2022-10-18T21:16:48.982Z,97503.13
2022-10-18T21:19:17.995Z,97504.06
2022-10-18T21:21:47.726Z,97505.31
2022-10-18T21:24:15.305Z,97496.84
2022-10-18T21:26:43.301Z,97493.13
2022-10-18T21:29:12.244Z,97490.84
2022-10-18T21:31:41.504Z,97492.06
2022-10-18T21:34:15.531Z,97491.94
2022-10-18T21:36:44.695Z,97485.72
2022-10-18T21:39:20.900Z,97485.94
2022-10-18T21:41:48.307Z,97475.72
2022-10-18T21:44:16.226Z,97480.13
2022-10-18T21:46:47.035Z,97487.28
2022-10-18T21:49:15.176Z,97485.78
2022-10-18T21:51:42.727Z,97488.50
2022-10-18T21:54:15.244Z,97486.75
2022-10-18T21:56:42.708Z,97481.28
2022-10-18T21:59:12.650Z,97479.78
2022-10-18T22:01:40.717Z,97482.50
2022-10-18T22:04:20.795Z,97473.59
2022-10-18T22:06:48.213Z,97472.19
2022-10-18T22:09:15.739Z,97475.03
2022-10-18T22:11:48.386Z,97478.81
2022-10-18T22:14:15.701Z,97476.78
2022-10-18T22:16:43.372Z,97479.25
2022-10-18T22:19:12.900Z,97483.19
2022-10-18T22:21:40.322Z,97483.66
2022-10-18T22:24:09.363Z,97481.69
2022-10-18T22:26:40.110Z,97482.91
2022-10-18T22:29:19.077Z,97484.41
2022-10-18T22:31:50.127Z,97481.38
2022-10-18T22:34:19.994Z,97482.34
2022-10-18T22:36:47.374Z,97486.28
2022-10-18T22:39:15.831Z,97484.06
2022-10-18T22:41:45.033Z,97481.81
2022-10-18T22:44:14.487Z,97487.44
2022-10-18T22:46:44.075Z,97484.44
2022-10-18T22:49:12.124Z,97483.41
2022-10-18T22:51:39.406Z,97477.69
2022-10-18T22:54:06.709Z,97476.47
2022-10-18T22:56:34.081Z,97480.94
2022-10-18T22:59:01.136Z,97471.28
2022-10-18T23:01:28.445Z,97477.72
2022-10-18T23:03:57.262Z,97478.03
2022-10-18T23:06:27.551Z,97471.28
2022-10-18T23:08:57.375Z,97473.66
2022-10-18T23:11:26.236Z,97475.34
2022-10-18T23:13:53.312Z,97464.66
2022-10-18T23:16:24.075Z,97477.97
2022-10-18T23:18:52.894Z,97473.47
2022-10-18T23:21:20.998Z,97473.47
2022-10-18T23:23:48.364Z,97474.41
2022-10-18T23:26:17.867Z,97475.66
2022-10-18T23:28:46.916Z,97471.41
2022-10-18T23:31:19.667Z,97475.81
2022-10-18T23:33:52.406Z,97478.53
2022-10-18T23:36:22.509Z,97472.84
2022-10-18T23:38:50.645Z,97475.28
2022-10-18T23:41:19.054Z,97473.00
2022-10-18T23:43:46.864Z,97469.53
2022-10-18T23:46:16.200Z,97474.22
2022-10-18T23:48:43.772Z,97473.22
2022-10-18T23:51:11.155Z,97475.94
2022-10-18T23:53:38.773Z,97477.91
2022-10-18T23:56:09.434Z,97471.69
2022-10-18T23:58:37.663Z,97470.19
